sensor_id;sensor_type;location;lat;lon;timestamp;pressure;altitude;pressure_sealevel;temperature;humidity
53270;BME280;39159;45.634;9.420;2023-05-27T00:01:05;99048.75;;;18.96;93.82
53270;BME280;39159;45.634;9.420;2023-05-27T00:03:31;99056.63;;;18.94;94.51
53270;BME280;39159;45.634;9.420;2023-05-27T00:05:56;99051.38;;;18.89;95.20
53270;BME280;39159;45.634;9.420;2023-05-27T00:08:22;99054.88;;;18.86;96.23
53270;BME280;39159;45.634;9.420;2023-05-27T00:10:47;99065.94;;;18.86;95.44
53270;BME280;39159;45.634;9.420;2023-05-27T00:13:13;99066.63;;;18.82;95.54
53270;BME280;39159;45.634;9.420;2023-05-27T00:15:40;99066.38;;;18.88;95.57
53270;BME280;39159;45.634;9.420;2023-05-27T00:18:06;99076.34;;;18.92;94.89
53270;BME280;39159;45.634;9.420;2023-05-27T00:20:32;99076.34;;;18.92;96.01
53270;BME280;39159;45.634;9.420;2023-05-27T00:22:58;99074.38;;;18.93;96.48
53270;BME280;39159;45.634;9.420;2023-05-27T00:25:26;99074.09;;;18.98;95.87
53270;BME280;39159;45.634;9.420;2023-05-27T00:27:51;99076.84;;;18.98;96.47
53270;BME280;39159;45.634;9.420;2023-05-27T00:30:17;99081.50;;;18.94;97.95
53270;BME280;39159;45.634;9.420;2023-05-27T00:32:42;99084.28;;;18.94;98.42
53270;BME280;39159;45.634;9.420;2023-05-27T00:35:08;99086.78;;;18.99;98.61
53270;BME280;39159;45.634;9.420;2023-05-27T00:37:34;99081.88;;;18.92;99.36
53270;BME280;39159;45.634;9.420;2023-05-27T00:39:59;99087.03;;;18.94;99.79
53270;BME280;39159;45.634;9.420;2023-05-27T00:42:25;99089.28;;;18.88;100.00
53270;BME280;39159;45.634;9.420;2023-05-27T00:44:50;99089.13;;;18.81;100.00
53270;BME280;39159;45.634;9.420;2023-05-27T00:47:16;99080.75;;;18.77;100.00
53270;BME280;39159;45.634;9.420;2023-05-27T00:49:43;99084.31;;;18.78;100.00
53270;BME280;39159;45.634;9.420;2023-05-27T00:52:09;99084.41;;;18.81;100.00
53270;BME280;39159;45.634;9.420;2023-05-27T00:54:35;99085.66;;;18.84;100.00
53270;BME280;39159;45.634;9.420;2023-05-27T00:57:01;99088.50;;;18.88;100.00
53270;BME280;39159;45.634;9.420;2023-05-27T00:59:30;99086.88;;;18.87;100.00
53270;BME280;39159;45.634;9.420;2023-05-27T01:01:56;99081.69;;;18.85;100.00
53270;BME280;39159;45.634;9.420;2023-05-27T01:04:21;99073.84;;;18.87;100.00
53270;BME280;39159;45.634;9.420;2023-05-27T01:10:18;99079.47;;;18.91;100.00
53270;BME280;39159;45.634;9.420;2023-05-27T01:13:31;99079.75;;;18.86;100.00
53270;BME280;39159;45.634;9.420;2023-05-27T01:15:36;99069.06;;;18.84;100.00
53270;BME280;39159;45.634;9.420;2023-05-27T01:18:02;99071.81;;;18.84;100.00
53270;BME280;39159;45.634;9.420;2023-05-27T01:20:28;99077.78;;;18.86;100.00
53270;BME280;39159;45.634;9.420;2023-05-27T01:22:55;99074.22;;;18.86;100.00
53270;BME280;39159;45.634;9.420;2023-05-27T01:25:23;99081.34;;;18.87;100.00
53270;BME280;39159;45.634;9.420;2023-05-27T01:27:49;99086.53;;;18.88;100.00
53270;BME280;39159;45.634;9.420;2023-05-27T01:30:16;99083.75;;;18.88;100.00
53270;BME280;39159;45.634;9.420;2023-05-27T01:38:07;99084.91;;;18.87;100.00
53270;BME280;39159;45.634;9.420;2023-05-27T01:40:35;99083.03;;;18.91;100.00
53270;BME280;39159;45.634;9.420;2023-05-27T01:43:00;99084.28;;;18.94;100.00
53270;BME280;39159;45.634;9.420;2023-05-27T01:45:26;99090.97;;;18.93;100.00
53270;BME280;39159;45.634;9.420;2023-05-27T01:47:52;99091.41;;;18.95;100.00
53270;BME280;39159;45.634;9.420;2023-05-27T01:50:18;99087.88;;;18.94;100.00
53270;BME280;39159;45.634;9.420;2023-05-27T01:52:43;99089.00;;;18.93;100.00
53270;BME280;39159;45.634;9.420;2023-05-27T01:55:09;99084.72;;;18.96;100.00
53270;BME280;39159;45.634;9.420;2023-05-27T01:57:36;99092.66;;;18.97;100.00
53270;BME280;39159;45.634;9.420;2023-05-27T02:00:01;99082.03;;;18.99;100.00
53270;BME280;39159;45.634;9.420;2023-05-27T02:02:28;99091.94;;;19.00;100.00
53270;BME280;39159;45.634;9.420;2023-05-27T02:04:54;99087.63;;;19.03;100.00
53270;BME280;39159;45.634;9.420;2023-05-27T02:07:20;99087.28;;;19.04;100.00
53270;BME280;39159;45.634;9.420;2023-05-27T02:09:45;99090.03;;;19.04;100.00
53270;BME280;39159;45.634;9.420;2023-05-27T02:12:14;99094.00;;;19.03;100.00
53270;BME280;39159;45.634;9.420;2023-05-27T02:14:40;99094.44;;;19.05;100.00
53270;BME280;39159;45.634;9.420;2023-05-27T02:17:06;99096.75;;;19.03;100.00
53270;BME280;39159;45.634;9.420;2023-05-27T02:19:33;99102.00;;;19.09;100.00
53270;BME280;39159;45.634;9.420;2023-05-27T02:21:58;99105.41;;;19.02;100.00
53270;BME280;39159;45.634;9.420;2023-05-27T02:24:24;99101.03;;;19.01;100.00
53270;BME280;39159;45.634;9.420;2023-05-27T02:26:49;99106.94;;;18.99;100.00
53270;BME280;39159;45.634;9.420;2023-05-27T02:29:15;99101.31;;;18.96;100.00
53270;BME280;39159;45.634;9.420;2023-05-27T02:31:40;99102.09;;;18.96;100.00
53270;BME280;39159;45.634;9.420;2023-05-27T02:34:06;99102.94;;;18.97;100.00
53270;BME280;39159;45.634;9.420;2023-05-27T02:36:32;99110.78;;;18.95;100.00
53270;BME280;39159;45.634;9.420;2023-05-27T02:38:58;99102.94;;;18.97;100.00
53270;BME280;39159;45.634;9.420;2023-05-27T02:41:24;99108.72;;;18.92;100.00
53270;BME280;39159;45.634;9.420;2023-05-27T02:43:50;99100.72;;;18.87;100.00
53270;BME280;39159;45.634;9.420;2023-05-27T02:46:15;99102.84;;;18.93;100.00
53270;BME280;39159;45.634;9.420;2023-05-27T02:48:40;99110.78;;;18.95;100.00
53270;BME280;39159;45.634;9.420;2023-05-27T02:51:06;99105.88;;;18.88;100.00
53270;BME280;39159;45.634;9.420;2023-05-27T02:53:32;99111.78;;;18.87;100.00
53270;BME280;39159;45.634;9.420;2023-05-27T02:55:57;99104.38;;;18.91;100.00
53270;BME280;39159;45.634;9.420;2023-05-27T02:58:23;99114.97;;;18.89;100.00
53270;BME280;39159;45.634;9.420;2023-05-27T03:00:48;99116.31;;;18.95;100.00
53270;BME280;39159;45.634;9.420;2023-05-27T03:03:13;99115.41;;;18.91;100.00
53270;BME280;39159;45.634;9.420;2023-05-27T03:05:39;99119.25;;;18.86;100.00
53270;BME280;39159;45.634;9.420;2023-05-27T03:08:05;99119.91;;;18.79;100.00
53270;BME280;39159;45.634;9.420;2023-05-27T03:10:32;99117.13;;;18.79;100.00
53270;BME280;39159;45.634;9.420;2023-05-27T03:12:57;99129.34;;;18.78;100.00
53270;BME280;39159;45.634;9.420;2023-05-27T03:15:23;99131.75;;;18.80;100.00
53270;BME280;39159;45.634;9.420;2023-05-27T03:17:48;99134.41;;;18.76;100.00
53270;BME280;39159;45.634;9.420;2023-05-27T03:20:14;99135.47;;;18.72;100.00
53270;BME280;39159;45.634;9.420;2023-05-27T03:22:42;99134.31;;;18.73;100.00
53270;BME280;39159;45.634;9.420;2023-05-27T03:25:08;99135.41;;;18.68;100.00
53270;BME280;39159;45.634;9.420;2023-05-27T03:27:33;99139.75;;;18.69;100.00
53270;BME280;39159;45.634;9.420;2023-05-27T03:29:59;99138.06;;;18.64;100.00
53270;BME280;39159;45.634;9.420;2023-05-27T03:32:25;99140.66;;;18.57;100.00
53270;BME280;39159;45.634;9.420;2023-05-27T03:34:50;99137.00;;;18.53;100.00
53270;BME280;39159;45.634;9.420;2023-05-27T03:37:16;99153.25;;;18.55;100.00
53270;BME280;39159;45.634;9.420;2023-05-27T03:39:41;99154.75;;;18.52;100.00
53270;BME280;39159;45.634;9.420;2023-05-27T03:42:07;99156.34;;;18.53;100.00
53270;BME280;39159;45.634;9.420;2023-05-27T03:44:32;99167.31;;;18.50;100.00
53270;BME280;39159;45.634;9.420;2023-05-27T03:46:58;99167.84;;;18.39;100.00
53270;BME280;39159;45.634;9.420;2023-05-27T03:49:23;99173.63;;;18.34;100.00
53270;BME280;39159;45.634;9.420;2023-05-27T03:51:49;99166.41;;;18.30;100.00
53270;BME280;39159;45.634;9.420;2023-05-27T03:54:15;99165.59;;;18.29;100.00
53270;BME280;39159;45.634;9.420;2023-05-27T03:56:40;99163.53;;;18.26;100.00
53270;BME280;39159;45.634;9.420;2023-05-27T03:59:05;99166.13;;;18.19;100.00
53270;BME280;39159;45.634;9.420;2023-05-27T04:01:34;99178.31;;;18.18;100.00
53270;BME280;39159;45.634;9.420;2023-05-27T04:03:59;99174.66;;;18.14;100.00
53270;BME280;39159;45.634;9.420;2023-05-27T04:06:25;99171.44;;;18.12;100.00
53270;BME280;39159;45.634;9.420;2023-05-27T04:08:50;99168.94;;;18.07;100.00
53270;BME280;39159;45.634;9.420;2023-05-27T04:11:16;99165.72;;;18.05;100.00
53270;BME280;39159;45.634;9.420;2023-05-27T04:13:41;99174.72;;;18.01;100.00
53270;BME280;39159;45.634;9.420;2023-05-27T04:16:07;99168.41;;;18.01;100.00
53270;BME280;39159;45.634;9.420;2023-05-27T04:18:33;99170.25;;;17.97;100.00
53270;BME280;39159;45.634;9.420;2023-05-27T04:20:59;99170.78;;;18.02;100.00
53270;BME280;39159;45.634;9.420;2023-05-27T04:23:25;99173.47;;;17.99;100.00
53270;BME280;39159;45.634;9.420;2023-05-27T04:25:51;99183.34;;;18.00;100.00
53270;BME280;39159;45.634;9.420;2023-05-27T04:28:17;99182.44;;;17.96;100.00
53270;BME280;39159;45.634;9.420;2023-05-27T04:30:43;99184.06;;;17.97;100.00
53270;BME280;39159;45.634;9.420;2023-05-27T04:33:11;99186.81;;;17.97;100.00
53270;BME280;39159;45.634;9.420;2023-05-27T04:35:37;99186.03;;;17.96;100.00
53270;BME280;39159;45.634;9.420;2023-05-27T04:38:06;99180.41;;;17.93;100.00
53270;BME280;39159;45.634;9.420;2023-05-27T04:40:32;99186.19;;;17.88;100.00
53270;BME280;39159;45.634;9.420;2023-05-27T04:42:59;99188.09;;;17.87;100.00
53270;BME280;39159;45.634;9.420;2023-05-27T04:45:25;99193.56;;;17.84;100.00
53270;BME280;39159;45.634;9.420;2023-05-27T04:47:51;99203.44;;;17.85;100.00
53270;BME280;39159;45.634;9.420;2023-05-27T04:50:17;99200.53;;;17.81;100.00
53270;BME280;39159;45.634;9.420;2023-05-27T04:52:43;99205.63;;;17.79;100.00
53270;BME280;39159;45.634;9.420;2023-05-27T04:55:10;99209.50;;;17.78;100.00
53270;BME280;39159;45.634;9.420;2023-05-27T04:57:36;99211.13;;;17.79;100.00
53270;BME280;39159;45.634;9.420;2023-05-27T05:00:07;99217.44;;;17.79;100.00
53270;BME280;39159;45.634;9.420;2023-05-27T05:02:36;99217.59;;;17.83;100.00
53270;BME280;39159;45.634;9.420;2023-05-27T05:07:30;99237.47;;;17.89;100.00
53270;BME280;39159;45.634;9.420;2023-05-27T05:09:56;99234.44;;;17.94;100.00
53270;BME280;39159;45.634;9.420;2023-05-27T05:12:22;99237.91;;;18.03;100.00
53270;BME280;39159;45.634;9.420;2023-05-27T05:14:48;99238.31;;;18.05;100.00
53270;BME280;39159;45.634;9.420;2023-05-27T05:17:13;99241.00;;;18.01;100.00
53270;BME280;39159;45.634;9.420;2023-05-27T05:19:39;99243.16;;;18.08;100.00
53270;BME280;39159;45.634;9.420;2023-05-27T05:22:05;99247.88;;;18.08;100.00
53270;BME280;39159;45.634;9.420;2023-05-27T05:24:30;99253.63;;;18.15;100.00
53270;BME280;39159;45.634;9.420;2023-05-27T05:26:56;99254.06;;;18.17;100.00
53270;BME280;39159;45.634;9.420;2023-05-27T05:29:21;99255.66;;;18.18;100.00
53270;BME280;39159;45.634;9.420;2023-05-27T05:31:47;99258.06;;;18.19;100.00
53270;BME280;39159;45.634;9.420;2023-05-27T05:34:12;99267.72;;;18.26;100.00
53270;BME280;39159;45.634;9.420;2023-05-27T05:36:38;99270.84;;;18.24;100.00
53270;BME280;39159;45.634;9.420;2023-05-27T05:39:03;99273.09;;;18.34;100.00
53270;BME280;39159;45.634;9.420;2023-05-27T05:41:29;99266.47;;;18.23;100.00
53270;BME280;39159;45.634;9.420;2023-05-27T05:43:55;99266.88;;;18.37;100.00
53270;BME280;39159;45.634;9.420;2023-05-27T05:46:21;99261.06;;;18.42;100.00
53270;BME280;39159;45.634;9.420;2023-05-27T05:48:46;99270.09;;;18.39;100.00
53270;BME280;39159;45.634;9.420;2023-05-27T05:51:12;99267.31;;;18.39;100.00
53270;BME280;39159;45.634;9.420;2023-05-27T05:53:37;99267.22;;;18.36;100.00
53270;BME280;39159;45.634;9.420;2023-05-27T05:56:03;99262.13;;;18.38;100.00
53270;BME280;39159;45.634;9.420;2023-05-27T05:58:28;99269.63;;;18.37;100.00
53270;BME280;39159;45.634;9.420;2023-05-27T06:00:54;99274.69;;;18.35;100.00
53270;BME280;39159;45.634;9.420;2023-05-27T06:03:19;99267.22;;;18.36;100.00
53270;BME280;39159;45.634;9.420;2023-05-27T06:05:45;99267.84;;;18.45;100.00
53270;BME280;39159;45.634;9.420;2023-05-27T06:08:10;99264.88;;;18.66;100.00
53270;BME280;39159;45.634;9.420;2023-05-27T06:10:36;99272.91;;;18.71;100.00
53270;BME280;39159;45.634;9.420;2023-05-27T06:13:02;99267.09;;;18.76;100.00
53270;BME280;39159;45.634;9.420;2023-05-27T06:15:27;99273.22;;;18.82;100.00
53270;BME280;39159;45.634;9.420;2023-05-27T06:17:53;99264.25;;;18.73;100.00
53270;BME280;39159;45.634;9.420;2023-05-27T06:20:19;99275.13;;;18.66;100.00
53270;BME280;39159;45.634;9.420;2023-05-27T06:22:45;99283.09;;;18.83;100.00
53270;BME280;39159;45.634;9.420;2023-05-27T06:25:12;99280.00;;;19.00;100.00
53270;BME280;39159;45.634;9.420;2023-05-27T06:27:38;99279.94;;;19.13;100.00
53270;BME280;39159;45.634;9.420;2023-05-27T06:30:04;99277.31;;;19.36;100.00
53270;BME280;39159;45.634;9.420;2023-05-27T06:32:30;99282.31;;;19.46;100.00
53270;BME280;39159;45.634;9.420;2023-05-27T06:34:55;99273.66;;;19.32;100.00
53270;BME280;39159;45.634;9.420;2023-05-27T06:37:21;99277.63;;;19.15;100.00
53270;BME280;39159;45.634;9.420;2023-05-27T06:39:46;99281.53;;;19.14;100.00
53270;BME280;39159;45.634;9.420;2023-05-27T06:42:12;99274.84;;;18.99;100.00
53270;BME280;39159;45.634;9.420;2023-05-27T06:44:38;99284.13;;;19.07;100.00
53270;BME280;39159;45.634;9.420;2023-05-27T06:47:03;99278.13;;;19.04;100.00
53270;BME280;39159;45.634;9.420;2023-05-27T06:49:29;99281.91;;;19.12;100.00
53270;BME280;39159;45.634;9.420;2023-05-27T06:51:54;99279.31;;;19.19;100.00
53270;BME280;39159;45.634;9.420;2023-05-27T06:54:20;99280.09;;;19.36;100.00
53270;BME280;39159;45.634;9.420;2023-05-27T06:56:45;99270.06;;;19.47;100.00
53270;BME280;39159;45.634;9.420;2023-05-27T06:59:11;99279.53;;;19.62;100.00
53270;BME280;39159;45.634;9.420;2023-05-27T07:01:36;99276.75;;;19.78;100.00
53270;BME280;39159;45.634;9.420;2023-05-27T07:04:03;99269.59;;;19.96;100.00
53270;BME280;39159;45.634;9.420;2023-05-27T07:06:29;99273.50;;;20.11;100.00
53270;BME280;39159;45.634;9.420;2023-05-27T07:08:54;99268.66;;;20.27;100.00
53270;BME280;39159;45.634;9.420;2023-05-27T07:11:20;99272.84;;;20.18;100.00
53270;BME280;39159;45.634;9.420;2023-05-27T07:13:47;99278.81;;;20.39;100.00
53270;BME280;39159;45.634;9.420;2023-05-27T07:16:12;99289.47;;;20.37;100.00
53270;BME280;39159;45.634;9.420;2023-05-27T07:18:38;99281.47;;;20.32;100.00
53270;BME280;39159;45.634;9.420;2023-05-27T07:21:03;99278.72;;;20.16;100.00
53270;BME280;39159;45.634;9.420;2023-05-27T07:23:29;99277.16;;;20.35;100.00
53270;BME280;39159;45.634;9.420;2023-05-27T07:25:54;99276.56;;;20.64;100.00
53270;BME280;39159;45.634;9.420;2023-05-27T07:28:20;99270.91;;;20.80;100.00
53270;BME280;39159;45.634;9.420;2023-05-27T07:30:45;99263.31;;;21.00;100.00
53270;BME280;39159;45.634;9.420;2023-05-27T07:33:11;99269.78;;;20.85;100.00
53270;BME280;39159;45.634;9.420;2023-05-27T07:35:36;99272.94;;;21.06;100.00
53270;BME280;39159;45.634;9.420;2023-05-27T07:38:02;99268.47;;;21.25;100.00
53270;BME280;39159;45.634;9.420;2023-05-27T07:40:28;99273.63;;;21.46;100.00
53270;BME280;39159;45.634;9.420;2023-05-27T07:42:53;99265.47;;;21.60;97.76
53270;BME280;39159;45.634;9.420;2023-05-27T07:45:19;99265.09;;;21.88;95.08
53270;BME280;39159;45.634;9.420;2023-05-27T07:47:44;99263.03;;;21.55;97.84
53270;BME280;39159;45.634;9.420;2023-05-27T07:50:11;99257.78;;;21.77;96.66
53270;BME280;39159;45.634;9.420;2023-05-27T07:52:39;99254.81;;;22.23;95.00
53270;BME280;39159;45.634;9.420;2023-05-27T07:55:05;99255.09;;;22.14;92.59
53270;BME280;39159;45.634;9.420;2023-05-27T07:57:31;99247.84;;;22.06;89.58
53270;BME280;39159;45.634;9.420;2023-05-27T07:59:56;99251.38;;;21.72;90.65
53270;BME280;39159;45.634;9.420;2023-05-27T08:02:22;99253.31;;;21.68;91.75
53270;BME280;39159;45.634;9.420;2023-05-27T08:04:47;99245.72;;;21.96;89.27
53270;BME280;39159;45.634;9.420;2023-05-27T08:07:14;99241.47;;;22.05;87.20
53270;BME280;39159;45.634;9.420;2023-05-27T08:09:39;99243.59;;;21.85;89.41
53270;BME280;39159;45.634;9.420;2023-05-27T08:12:05;99242.00;;;22.48;85.65
53270;BME280;39159;45.634;9.420;2023-05-27T08:14:31;99238.16;;;22.60;83.86
53270;BME280;39159;45.634;9.420;2023-05-27T08:16:57;99244.94;;;22.63;83.71
53270;BME280;39159;45.634;9.420;2023-05-27T08:19:23;99239.63;;;22.91;83.29
53270;BME280;39159;45.634;9.420;2023-05-27T08:21:48;99237.09;;;23.13;80.68
53270;BME280;39159;45.634;9.420;2023-05-27T08:24:14;99235.00;;;23.03;81.30
53270;BME280;39159;45.634;9.420;2023-05-27T08:26:40;99220.41;;;23.20;78.88
53270;BME280;39159;45.634;9.420;2023-05-27T08:29:05;99218.44;;;23.17;79.41
53270;BME280;39159;45.634;9.420;2023-05-27T08:31:31;99210.31;;;23.53;78.01
53270;BME280;39159;45.634;9.420;2023-05-27T08:33:56;99216.56;;;23.35;78.11
53270;BME280;39159;45.634;9.420;2023-05-27T08:36:22;99219.22;;;23.17;77.78
53270;BME280;39159;45.634;9.420;2023-05-27T08:38:47;99215.81;;;23.42;78.22
53270;BME280;39159;45.634;9.420;2023-05-27T08:41:14;99225.88;;;23.61;73.83
53270;BME280;39159;45.634;9.420;2023-05-27T08:43:40;99218.16;;;22.88;77.54
53270;BME280;39159;45.634;9.420;2023-05-27T08:46:07;99220.22;;;22.98;80.00
53270;BME280;39159;45.634;9.420;2023-05-27T08:48:33;99220.34;;;23.09;76.87
53270;BME280;39159;45.634;9.420;2023-05-27T08:50:58;99221.69;;;23.30;75.67
53270;BME280;39159;45.634;9.420;2023-05-27T08:53:26;99208.53;;;23.89;72.24
53270;BME280;39159;45.634;9.420;2023-05-27T08:55:53;99206.63;;;24.11;69.63
53270;BME280;39159;45.634;9.420;2023-05-27T08:58:20;99210.97;;;24.05;69.53
53270;BME280;39159;45.634;9.420;2023-05-27T09:00:45;99201.88;;;24.19;68.66
53270;BME280;39159;45.634;9.420;2023-05-27T09:03:11;99203.44;;;24.06;69.03
53270;BME280;39159;45.634;9.420;2023-05-27T09:05:37;99209.47;;;24.26;67.19
53270;BME280;39159;45.634;9.420;2023-05-27T09:08:02;99205.91;;;24.32;66.74
53270;BME280;39159;45.634;9.420;2023-05-27T09:10:41;99205.88;;;24.36;66.33
53270;BME280;39159;45.634;9.420;2023-05-27T09:13:07;99203.50;;;24.38;68.87
53270;BME280;39159;45.634;9.420;2023-05-27T09:15:33;99207.19;;;24.78;66.00
53270;BME280;39159;45.634;9.420;2023-05-27T09:18:01;99211.16;;;24.63;65.76
53270;BME280;39159;45.634;9.420;2023-05-27T09:20:28;99205.19;;;24.89;64.71
53270;BME280;39159;45.634;9.420;2023-05-27T09:23:02;99196.44;;;25.01;66.32
53270;BME280;39159;45.634;9.420;2023-05-27T09:25:28;99203.59;;;25.31;64.35
53270;BME280;39159;45.634;9.420;2023-05-27T09:27:54;99184.84;;;25.35;63.20
53270;BME280;39159;45.634;9.420;2023-05-27T09:30:21;99196.00;;;25.46;63.13
53270;BME280;39159;45.634;9.420;2023-05-27T09:32:47;99190.72;;;25.77;61.92
53270;BME280;39159;45.634;9.420;2023-05-27T09:35:14;99186.81;;;25.38;60.24
53270;BME280;39159;45.634;9.420;2023-05-27T09:37:40;99186.84;;;25.02;60.56
53270;BME280;39159;45.634;9.420;2023-05-27T09:40:08;99173.66;;;25.32;60.02
53270;BME280;39159;45.634;9.420;2023-05-27T09:42:49;99182.81;;;25.47;60.68
53270;BME280;39159;45.634;9.420;2023-05-27T09:45:17;99171.13;;;25.80;58.42
53270;BME280;39159;45.634;9.420;2023-05-27T09:47:48;99171.09;;;25.95;56.79
53270;BME280;39159;45.634;9.420;2023-05-27T09:50:14;99167.09;;;25.99;55.92
53270;BME280;39159;45.634;9.420;2023-05-27T09:52:40;99163.13;;;25.97;54.89
53270;BME280;39159;45.634;9.420;2023-05-27T09:55:08;99166.81;;;25.58;56.89
53270;BME280;39159;45.634;9.420;2023-05-27T09:57:34;99158.13;;;25.27;61.48
53270;BME280;39159;45.634;9.420;2023-05-27T10:00:05;99166.38;;;25.70;61.32
53270;BME280;39159;45.634;9.420;2023-05-27T10:02:40;99158.09;;;25.38;58.25
53270;BME280;39159;45.634;9.420;2023-05-27T10:05:07;99159.31;;;25.12;60.04
53270;BME280;39159;45.634;9.420;2023-05-27T10:07:40;99156.53;;;25.26;59.93
53270;BME280;39159;45.634;9.420;2023-05-27T10:10:07;99161.19;;;25.65;58.33
53270;BME280;39159;45.634;9.420;2023-05-27T10:12:34;99151.59;;;25.77;56.33
53270;BME280;39159;45.634;9.420;2023-05-27T10:15:00;99153.97;;;25.78;58.75
53270;BME280;39159;45.634;9.420;2023-05-27T10:17:26;99157.47;;;26.04;56.90
53270;BME280;39159;45.634;9.420;2023-05-27T10:19:56;99149.81;;;26.15;56.89
53270;BME280;39159;45.634;9.420;2023-05-27T10:22:22;99158.72;;;25.96;55.71
53270;BME280;39159;45.634;9.420;2023-05-27T10:24:47;99146.69;;;26.06;56.28
53270;BME280;39159;45.634;9.420;2023-05-27T10:27:13;99146.94;;;26.30;55.50
53270;BME280;39159;45.634;9.420;2023-05-27T10:29:39;99144.91;;;26.30;55.78
53270;BME280;39159;45.634;9.420;2023-05-27T10:32:05;99137.19;;;26.56;54.45
53270;BME280;39159;45.634;9.420;2023-05-27T10:34:41;99133.63;;;26.44;53.83
53270;BME280;39159;45.634;9.420;2023-05-27T10:37:07;99130.81;;;26.48;54.21
53270;BME280;39159;45.634;9.420;2023-05-27T10:39:33;99133.38;;;26.24;57.34
53270;BME280;39159;45.634;9.420;2023-05-27T10:41:59;99132.06;;;26.40;56.88
53270;BME280;39159;45.634;9.420;2023-05-27T10:44:31;99138.59;;;26.19;55.91
53270;BME280;39159;45.634;9.420;2023-05-27T10:47:10;99132.34;;;25.97;56.99
53270;BME280;39159;45.634;9.420;2023-05-27T10:49:37;99130.81;;;26.48;55.30
53270;BME280;39159;45.634;9.420;2023-05-27T10:52:17;99129.06;;;26.09;54.08
53270;BME280;39159;45.634;9.420;2023-05-27T10:54:44;99130.34;;;25.94;56.17
53270;BME280;39159;45.634;9.420;2023-05-27T10:57:14;99129.81;;;26.20;57.92
53270;BME280;39159;45.634;9.420;2023-05-27T10:59:54;99131.03;;;26.16;56.06
53270;BME280;39159;45.634;9.420;2023-05-27T11:02:23;99124.09;;;26.38;55.51
53270;BME280;39159;45.634;9.420;2023-05-27T11:04:49;99124.19;;;26.24;55.16
53270;BME280;39159;45.634;9.420;2023-05-27T11:07:20;99120.56;;;26.31;54.70
53270;BME280;39159;45.634;9.420;2023-05-27T11:09:47;99124.97;;;26.24;53.88
53270;BME280;39159;45.634;9.420;2023-05-27T11:12:14;99120.44;;;26.45;53.43
53270;BME280;39159;45.634;9.420;2023-05-27T11:14:48;99117.56;;;26.52;52.10
53270;BME280;39159;45.634;9.420;2023-05-27T11:17:14;99114.00;;;26.52;52.71
53270;BME280;39159;45.634;9.420;2023-05-27T11:19:40;99112.19;;;26.79;53.02
53270;BME280;39159;45.634;9.420;2023-05-27T11:22:07;99111.59;;;26.99;52.21
53270;BME280;39159;45.634;9.420;2023-05-27T11:24:33;99109.31;;;26.86;50.97
53270;BME280;39159;45.634;9.420;2023-05-27T11:26:58;99101.22;;;26.96;52.81
53270;BME280;39159;45.634;9.420;2023-05-27T11:29:24;99098.22;;;27.55;53.56
53270;BME280;39159;45.634;9.420;2023-05-27T11:31:49;99089.81;;;27.55;52.14
53270;BME280;39159;45.634;9.420;2023-05-27T11:34:17;99092.88;;;27.30;51.68
53270;BME280;39159;45.634;9.420;2023-05-27T11:36:45;99091.88;;;26.12;53.81
53270;BME280;39159;45.634;9.420;2023-05-27T11:39:14;99087.63;;;25.97;55.77
53270;BME280;39159;45.634;9.420;2023-05-27T11:42:08;99084.72;;;26.11;54.92
53270;BME280;39159;45.634;9.420;2023-05-27T11:44:33;99067.66;;;25.91;56.76
53270;BME280;39159;45.634;9.420;2023-05-27T11:47:00;99073.66;;;26.45;58.56
53270;BME280;39159;45.634;9.420;2023-05-27T11:49:27;99071.59;;;26.53;55.71
53270;BME280;39159;45.634;9.420;2023-05-27T11:51:55;99065.97;;;27.02;53.28
53270;BME280;39159;45.634;9.420;2023-05-27T11:54:25;99061.75;;;26.83;53.41
53270;BME280;39159;45.634;9.420;2023-05-27T11:56:52;99060.41;;;26.98;52.52
53270;BME280;39159;45.634;9.420;2023-05-27T11:59:19;99056.28;;;27.44;54.02
53270;BME280;39159;45.634;9.420;2023-05-27T12:01:44;99062.72;;;27.72;49.64
53270;BME280;39159;45.634;9.420;2023-05-27T12:04:10;99044.44;;;27.64;50.58
53270;BME280;39159;45.634;9.420;2023-05-27T12:06:36;99049.44;;;27.76;49.01
53270;BME280;39159;45.634;9.420;2023-05-27T12:09:09;99057.59;;;27.36;49.59
53270;BME280;39159;45.634;9.420;2023-05-27T12:11:36;99050.16;;;27.19;49.48
53270;BME280;39159;45.634;9.420;2023-05-27T12:14:02;99046.56;;;27.18;49.24
53270;BME280;39159;45.634;9.420;2023-05-27T12:16:27;99034.66;;;27.11;48.55
53270;BME280;39159;45.634;9.420;2023-05-27T12:18:53;99037.84;;;27.13;49.25
53270;BME280;39159;45.634;9.420;2023-05-27T12:21:19;99038.84;;;26.95;48.96
53270;BME280;39159;45.634;9.420;2023-05-27T12:23:46;99035.44;;;27.11;51.46
53270;BME280;39159;45.634;9.420;2023-05-27T12:26:13;99028.03;;;27.32;50.04
53270;BME280;39159;45.634;9.420;2023-05-27T12:28:40;99024.88;;;27.57;49.93
53270;BME280;39159;45.634;9.420;2023-05-27T12:31:05;99027.09;;;27.73;49.55
53270;BME280;39159;45.634;9.420;2023-05-27T12:33:31;99029.16;;;27.68;48.72
53270;BME280;39159;45.634;9.420;2023-05-27T12:35:57;99025.34;;;27.52;48.02
53270;BME280;39159;45.634;9.420;2023-05-27T12:38:23;99027.63;;;27.33;49.85
53270;BME280;39159;45.634;9.420;2023-05-27T12:40:48;99020.09;;;27.26;48.74
53270;BME280;39159;45.634;9.420;2023-05-27T12:43:15;99012.97;;;26.80;50.39
53270;BME280;39159;45.634;9.420;2023-05-27T12:45:40;99017.78;;;27.14;49.74
53270;BME280;39159;45.634;9.420;2023-05-27T12:48:06;99010.75;;;27.02;49.21
53270;BME280;39159;45.634;9.420;2023-05-27T12:50:32;99016.34;;;26.64;50.17
53270;BME280;39159;45.634;9.420;2023-05-27T12:52:57;99010.69;;;26.23;51.94
53270;BME280;39159;45.634;9.420;2023-05-27T12:55:25;99006.47;;;26.49;54.08
53270;BME280;39159;45.634;9.420;2023-05-27T12:57:51;99003.78;;;26.80;52.25
53270;BME280;39159;45.634;9.420;2023-05-27T13:00:18;99007.59;;;26.97;51.02
53270;BME280;39159;45.634;9.420;2023-05-27T13:02:45;98999.41;;;27.13;51.96